Date,TemperatureHighF,TemperatureAvgF,TemperatureLowF,DewpointHighF,DewpointAvgF,DewpointLowF,HumidityHigh,HumidityAvg,HumidityLow,PressureMaxIn,PressureMinIn,WindSpeedMaxMPH,WindSpeedAvgMPH,GustSpeedMaxMPH,PrecipitationSumIn
2013-2-1,53.0,42.2,29.4,33.3,22.7,10.0,66,47,26,30.36,30.00,19,8,33,0.04
2013-2-2,45.0,36.3,26.8,40.9,23.3,8.7,93,61,31,30.40,30.02,9,3,14,0.00
2013-2-3,54.3,42.3,31.9,40.6,34.0,29.6,96,75,42,30.02,29.83,13,4,22,0.00
2013-2-4,48.9,38.2,25.1,36.6,29.5,23.1,93,73,42,30.13,29.96,7,1,12,0.00
2013-2-5,62.2,49.5,38.5,47.8,41.3,35.9,93,75,40,30.04,29.87,9,3,20,0.00
2013-2-6,65.2,50.5,39.9,50.1,43.2,37.1,95,79,36,30.22,29.95,9,3,13,0.00
2013-2-7,61.7,51.2,44.3,53.3,48.3,42.1,96,90,71,30.25,29.80,13,5,22,1.11
2013-2-8,56.2,52.0,47.0,55.4,48.4,39.0,97,88,74,29.97,29.48,21,8,31,0.40
2013-2-9,54.0,42.9,29.8,38.5,29.9,25.0,91,63,34,30.34,29.98,13,6,22,0.00
2013-2-10,53.5,42.5,27.0,49.6,37.2,25.2,95,83,49,30.45,30.25,8,3,14,0.00
2013-2-11,65.5,59.2,51.1,62.5,57.3,48.8,96,93,89,30.28,29.93,12,5,26,0.12
2013-2-12,63.9,57.7,51.8,59.9,51.4,39.5,94,81,41,30.06,29.92,10,4,17,0.07
2013-2-13,57.5,51.9,48.5,56.3,50.5,47.4,100,95,87,29.97,29.60,14,4,29,0.36
2013-2-14,53.2,45.7,37.2,48.6,40.6,35.6,95,83,62,30.07,29.78,9,2,17,0.01
2013-2-15,58.5,44.0,33.3,44.2,37.2,32.0,97,80,44,30.07,29.94,10,2,16,0.00
2013-2-16,48.3,39.2,33.1,43.9,36.7,31.7,96,91,80,29.94,29.68,16,5,27,0.17
2013-2-17,39.0,32.8,27.1,33.4,23.6,14.0,95,72,37,30.26,29.84,19,8,33,0.05
2013-2-18,47.8,35.4,20.4,30.6,23.4,14.0,92,65,34,30.42,30.26,9,2,16,0.00
2013-2-19,59.0,47.3,31.0,55.7,44.3,27.9,96,89,76,30.28,29.89,14,4,30,0.11
2013-2-20,57.9,45.4,34.4,45.2,33.1,13.5,96,70,18,30.09,29.93,13,3,22,0.00
2013-2-21,57.6,42.1,31.2,37.7,30.7,23.0,94,67,29,30.23,30.06,9,3,14,0.00
2013-2-22,52.0,44.7,39.6,50.1,37.8,28.4,94,77,62,30.30,30.03,9,4,18,0.00
2013-2-23,53.2,48.2,44.7,51.8,47.2,43.9,97,97,94,30.03,29.80,8,3,14,0.58
2013-2-24,64.1,50.6,39.6,51.4,46.6,38.1,97,88,52,29.97,29.74,12,4,18,0.00
2013-2-25,46.3,41.9,36.2,42.5,35.1,32.5,96,77,63,30.16,29.97,10,5,22,0.00
2013-2-26,64.0,55.0,41.4,63.1,52.9,33.7,97,93,74,30.06,29.59,19,8,31,0.96
2013-2-27,61.3,53.0,47.2,58.3,46.8,41.6,95,80,57,29.79,29.59,14,6,27,0.00
2013-2-28,57.6,47.4,35.6,45.4,39.7,33.0,92,76,47,29.82,29.67,12,5,21,0.00